sensor_id;sensor_type;location;lat;lon;timestamp;P1;durP1;ratioP1;P2;durP2;ratioP2
5040;SDS011;2539;52.568;13.364;2024-03-22T00:00:37;12.03;;;10.73;;
5040;SDS011;2539;52.568;13.364;2024-03-22T00:03:04;13.63;;;11.60;;
5040;SDS011;2539;52.568;13.364;2024-03-22T00:05:30;12.70;;;11.40;;
5040;SDS011;2539;52.568;13.364;2024-03-22T00:07:57;13.30;;;11.93;;
5040;SDS011;2539;52.568;13.364;2024-03-22T00:10:23;13.90;;;12.40;;
5040;SDS011;2539;52.568;13.364;2024-03-22T00:12:49;14.73;;;12.60;;
5040;SDS011;2539;52.568;13.364;2024-03-22T00:15:16;13.97;;;12.00;;
5040;SDS011;2539;52.568;13.364;2024-03-22T00:17:42;14.33;;;12.87;;
5040;SDS011;2539;52.568;13.364;2024-03-22T00:20:10;15.03;;;12.90;;
5040;SDS011;2539;52.568;13.364;2024-03-22T00:22:36;15.90;;;14.10;;
5040;SDS011;2539;52.568;13.364;2024-03-22T00:25:03;15.50;;;13.83;;
5040;SDS011;2539;52.568;13.364;2024-03-22T00:27:29;14.57;;;13.07;;
5040;SDS011;2539;52.568;13.364;2024-03-22T00:29:56;15.50;;;12.50;;
5040;SDS011;2539;52.568;13.364;2024-03-22T00:32:22;15.40;;;13.80;;
5040;SDS011;2539;52.568;13.364;2024-03-22T00:34:48;15.63;;;12.80;;
5040;SDS011;2539;52.568;13.364;2024-03-22T00:37:14;14.80;;;12.83;;
5040;SDS011;2539;52.568;13.364;2024-03-22T00:39:41;15.37;;;13.17;;
5040;SDS011;2539;52.568;13.364;2024-03-22T00:42:07;14.40;;;12.50;;
5040;SDS011;2539;52.568;13.364;2024-03-22T00:44:33;16.10;;;13.60;;
5040;SDS011;2539;52.568;13.364;2024-03-22T00:46:59;16.30;;;13.00;;
5040;SDS011;2539;52.568;13.364;2024-03-22T00:49:28;16.30;;;14.40;;
5040;SDS011;2539;52.568;13.364;2024-03-22T00:51:54;15.33;;;13.30;;
5040;SDS011;2539;52.568;13.364;2024-03-22T00:54:22;15.47;;;12.60;;
5040;SDS011;2539;52.568;13.364;2024-03-22T00:56:48;14.70;;;12.73;;
5040;SDS011;2539;52.568;13.364;2024-03-22T00:59:15;16.23;;;12.83;;
5040;SDS011;2539;52.568;13.364;2024-03-22T01:01:42;14.80;;;12.33;;
5040;SDS011;2539;52.568;13.364;2024-03-22T01:04:11;16.97;;;13.43;;
5040;SDS011;2539;52.568;13.364;2024-03-22T01:06:37;18.37;;;13.90;;
5040;SDS011;2539;52.568;13.364;2024-03-22T01:09:06;16.50;;;13.63;;
5040;SDS011;2539;52.568;13.364;2024-03-22T01:11:32;15.83;;;13.57;;
5040;SDS011;2539;52.568;13.364;2024-03-22T01:13:58;16.13;;;13.00;;
5040;SDS011;2539;52.568;13.364;2024-03-22T01:16:23;17.00;;;14.20;;
5040;SDS011;2539;52.568;13.364;2024-03-22T01:18:49;17.20;;;14.40;;
5040;SDS011;2539;52.568;13.364;2024-03-22T01:21:15;17.63;;;13.77;;
5040;SDS011;2539;52.568;13.364;2024-03-22T01:23:47;17.73;;;13.30;;
5040;SDS011;2539;52.568;13.364;2024-03-22T01:26:14;19.53;;;14.33;;
5040;SDS011;2539;52.568;13.364;2024-03-22T01:28:40;19.27;;;14.70;;
5040;SDS011;2539;52.568;13.364;2024-03-22T01:31:11;19.00;;;14.87;;
5040;SDS011;2539;52.568;13.364;2024-03-22T01:33:37;18.03;;;13.90;;
5040;SDS011;2539;52.568;13.364;2024-03-22T01:36:03;19.90;;;14.90;;
5040;SDS011;2539;52.568;13.364;2024-03-22T01:38:30;21.97;;;15.00;;
5040;SDS011;2539;52.568;13.364;2024-03-22T01:40:56;20.90;;;14.60;;
5040;SDS011;2539;52.568;13.364;2024-03-22T01:43:22;17.17;;;14.23;;
5040;SDS011;2539;52.568;13.364;2024-03-22T01:45:49;19.20;;;14.67;;
5040;SDS011;2539;52.568;13.364;2024-03-22T01:48:15;19.40;;;14.43;;
5040;SDS011;2539;52.568;13.364;2024-03-22T01:50:41;19.70;;;14.70;;
5040;SDS011;2539;52.568;13.364;2024-03-22T01:53:09;18.00;;;13.63;;
5040;SDS011;2539;52.568;13.364;2024-03-22T01:55:36;21.83;;;15.80;;
5040;SDS011;2539;52.568;13.364;2024-03-22T01:58:02;24.10;;;15.00;;
5040;SDS011;2539;52.568;13.364;2024-03-22T02:00:29;18.13;;;13.50;;
5040;SDS011;2539;52.568;13.364;2024-03-22T02:02:56;16.50;;;13.80;;
5040;SDS011;2539;52.568;13.364;2024-03-22T02:05:22;18.50;;;13.47;;
5040;SDS011;2539;52.568;13.364;2024-03-22T02:07:50;19.30;;;14.40;;
5040;SDS011;2539;52.568;13.364;2024-03-22T02:10:17;17.83;;;13.93;;
5040;SDS011;2539;52.568;13.364;2024-03-22T02:12:43;22.87;;;13.70;;
5040;SDS011;2539;52.568;13.364;2024-03-22T02:15:09;18.87;;;14.10;;
5040;SDS011;2539;52.568;13.364;2024-03-22T02:17:36;16.73;;;13.20;;
5040;SDS011;2539;52.568;13.364;2024-03-22T02:20:02;20.40;;;13.87;;
5040;SDS011;2539;52.568;13.364;2024-03-22T02:22:30;17.67;;;12.80;;
5040;SDS011;2539;52.568;13.364;2024-03-22T02:24:57;19.30;;;14.00;;
5040;SDS011;2539;52.568;13.364;2024-03-22T02:27:24;22.13;;;14.73;;
5040;SDS011;2539;52.568;13.364;2024-03-22T02:29:51;18.13;;;13.70;;
5040;SDS011;2539;52.568;13.364;2024-03-22T02:32:17;16.50;;;12.70;;
5040;SDS011;2539;52.568;13.364;2024-03-22T02:34:43;18.17;;;13.47;;
5040;SDS011;2539;52.568;13.364;2024-03-22T02:37:13;16.13;;;13.00;;
5040;SDS011;2539;52.568;13.364;2024-03-22T02:39:39;19.90;;;14.40;;
5040;SDS011;2539;52.568;13.364;2024-03-22T02:42:05;18.97;;;13.87;;
5040;SDS011;2539;52.568;13.364;2024-03-22T02:44:32;21.20;;;13.83;;
5040;SDS011;2539;52.568;13.364;2024-03-22T02:46:58;18.70;;;13.07;;
5040;SDS011;2539;52.568;13.364;2024-03-22T02:49:24;20.30;;;13.37;;
5040;SDS011;2539;52.568;13.364;2024-03-22T02:51:51;18.40;;;13.40;;
5040;SDS011;2539;52.568;13.364;2024-03-22T02:54:18;19.17;;;13.57;;
5040;SDS011;2539;52.568;13.364;2024-03-22T02:56:44;20.10;;;13.67;;
5040;SDS011;2539;52.568;13.364;2024-03-22T02:59:10;17.30;;;12.97;;
5040;SDS011;2539;52.568;13.364;2024-03-22T03:01:37;20.53;;;14.00;;
5040;SDS011;2539;52.568;13.364;2024-03-22T03:04:03;18.27;;;13.47;;
5040;SDS011;2539;52.568;13.364;2024-03-22T03:06:30;19.17;;;13.83;;
5040;SDS011;2539;52.568;13.364;2024-03-22T03:08:56;19.43;;;13.47;;
5040;SDS011;2539;52.568;13.364;2024-03-22T03:11:22;17.67;;;12.80;;
5040;SDS011;2539;52.568;13.364;2024-03-22T03:13:49;17.40;;;13.50;;
5040;SDS011;2539;52.568;13.364;2024-03-22T03:16:15;16.90;;;13.50;;
5040;SDS011;2539;52.568;13.364;2024-03-22T03:18:41;19.43;;;12.90;;
5040;SDS011;2539;52.568;13.364;2024-03-22T03:21:07;17.53;;;12.97;;
5040;SDS011;2539;52.568;13.364;2024-03-22T03:23:34;17.80;;;12.77;;
5040;SDS011;2539;52.568;13.364;2024-03-22T03:26:00;19.03;;;13.40;;
5040;SDS011;2539;52.568;13.364;2024-03-22T03:28:26;21.47;;;13.03;;
5040;SDS011;2539;52.568;13.364;2024-03-22T03:30:53;18.23;;;13.53;;
5040;SDS011;2539;52.568;13.364;2024-03-22T03:33:19;16.70;;;12.90;;
5040;SDS011;2539;52.568;13.364;2024-03-22T03:35:46;19.77;;;13.70;;
5040;SDS011;2539;52.568;13.364;2024-03-22T03:38:12;16.83;;;12.10;;
5040;SDS011;2539;52.568;13.364;2024-03-22T03:40:39;18.30;;;13.47;;
5040;SDS011;2539;52.568;13.364;2024-03-22T03:43:05;16.73;;;12.80;;
5040;SDS011;2539;52.568;13.364;2024-03-22T03:45:32;17.23;;;13.10;;
5040;SDS011;2539;52.568;13.364;2024-03-22T03:47:58;17.20;;;12.67;;
5040;SDS011;2539;52.568;13.364;2024-03-22T03:50:24;15.57;;;11.90;;
5040;SDS011;2539;52.568;13.364;2024-03-22T03:52:50;24.40;;;13.50;;
5040;SDS011;2539;52.568;13.364;2024-03-22T03:55:17;18.87;;;12.60;;
5040;SDS011;2539;52.568;13.364;2024-03-22T03:57:43;18.60;;;13.63;;
5040;SDS011;2539;52.568;13.364;2024-03-22T04:00:09;17.27;;;12.33;;
5040;SDS011;2539;52.568;13.364;2024-03-22T04:02:36;19.70;;;13.03;;
5040;SDS011;2539;52.568;13.364;2024-03-22T04:05:02;17.53;;;12.97;;
5040;SDS011;2539;52.568;13.364;2024-03-22T04:07:28;16.70;;;12.30;;
5040;SDS011;2539;52.568;13.364;2024-03-22T04:09:55;20.03;;;12.37;;
5040;SDS011;2539;52.568;13.364;2024-03-22T04:12:21;17.93;;;13.20;;
5040;SDS011;2539;52.568;13.364;2024-03-22T04:14:47;16.90;;;12.20;;
5040;SDS011;2539;52.568;13.364;2024-03-22T04:17:13;20.67;;;11.97;;
5040;SDS011;2539;52.568;13.364;2024-03-22T04:19:40;17.00;;;12.47;;
5040;SDS011;2539;52.568;13.364;2024-03-22T04:22:06;19.13;;;12.30;;
5040;SDS011;2539;52.568;13.364;2024-03-22T04:24:32;17.73;;;12.30;;
5040;SDS011;2539;52.568;13.364;2024-03-22T04:26:58;17.10;;;12.40;;
5040;SDS011;2539;52.568;13.364;2024-03-22T04:29:25;24.30;;;12.40;;
5040;SDS011;2539;52.568;13.364;2024-03-22T04:31:51;16.43;;;12.83;;
5040;SDS011;2539;52.568;13.364;2024-03-22T04:34:17;15.03;;;11.87;;
5040;SDS011;2539;52.568;13.364;2024-03-22T04:36:43;19.57;;;13.37;;
5040;SDS011;2539;52.568;13.364;2024-03-22T04:39:10;15.90;;;12.43;;
5040;SDS011;2539;52.568;13.364;2024-03-22T04:41:37;18.93;;;12.90;;
5040;SDS011;2539;52.568;13.364;2024-03-22T04:44:04;19.27;;;12.07;;
5040;SDS011;2539;52.568;13.364;2024-03-22T04:46:30;17.00;;;13.30;;
5040;SDS011;2539;52.568;13.364;2024-03-22T04:48:56;17.30;;;12.03;;
5040;SDS011;2539;52.568;13.364;2024-03-22T04:51:23;14.93;;;11.63;;
5040;SDS011;2539;52.568;13.364;2024-03-22T04:53:49;15.47;;;11.47;;
5040;SDS011;2539;52.568;13.364;2024-03-22T04:56:15;15.60;;;12.10;;
5040;SDS011;2539;52.568;13.364;2024-03-22T04:58:41;16.77;;;11.43;;
5040;SDS011;2539;52.568;13.364;2024-03-22T05:01:08;17.53;;;12.50;;
5040;SDS011;2539;52.568;13.364;2024-03-22T05:03:34;17.00;;;11.97;;
5040;SDS011;2539;52.568;13.364;2024-03-22T05:06:00;17.30;;;12.63;;
5040;SDS011;2539;52.568;13.364;2024-03-22T05:08:29;17.00;;;12.03;;
5040;SDS011;2539;52.568;13.364;2024-03-22T05:10:55;15.50;;;11.40;;
5040;SDS011;2539;52.568;13.364;2024-03-22T05:13:21;13.20;;;10.93;;
5040;SDS011;2539;52.568;13.364;2024-03-22T05:15:47;19.27;;;12.07;;
5040;SDS011;2539;52.568;13.364;2024-03-22T05:18:14;17.07;;;12.50;;
5040;SDS011;2539;52.568;13.364;2024-03-22T05:20:40;21.30;;;12.30;;
5040;SDS011;2539;52.568;13.364;2024-03-22T05:23:06;21.50;;;12.37;;
5040;SDS011;2539;52.568;13.364;2024-03-22T05:25:33;16.20;;;11.13;;
5040;SDS011;2539;52.568;13.364;2024-03-22T05:27:59;14.70;;;11.00;;
5040;SDS011;2539;52.568;13.364;2024-03-22T05:30:25;16.93;;;12.30;;
5040;SDS011;2539;52.568;13.364;2024-03-22T05:32:51;15.80;;;11.00;;
5040;SDS011;2539;52.568;13.364;2024-03-22T05:35:18;18.30;;;11.73;;
5040;SDS011;2539;52.568;13.364;2024-03-22T05:37:44;15.03;;;11.73;;
5040;SDS011;2539;52.568;13.364;2024-03-22T05:40:11;18.83;;;12.20;;
5040;SDS011;2539;52.568;13.364;2024-03-22T05:42:38;15.23;;;12.30;;
5040;SDS011;2539;52.568;13.364;2024-03-22T05:45:05;15.80;;;11.07;;
5040;SDS011;2539;52.568;13.364;2024-03-22T05:47:31;18.80;;;12.30;;
5040;SDS011;2539;52.568;13.364;2024-03-22T05:49:59;16.00;;;12.90;;
5040;SDS011;2539;52.568;13.364;2024-03-22T05:52:25;17.53;;;12.23;;
5040;SDS011;2539;52.568;13.364;2024-03-22T05:54:52;16.30;;;12.07;;
5040;SDS011;2539;52.568;13.364;2024-03-22T05:57:18;14.77;;;11.80;;
5040;SDS011;2539;52.568;13.364;2024-03-22T05:59:44;15.97;;;11.17;;
5040;SDS011;2539;52.568;13.364;2024-03-22T06:02:11;17.27;;;12.00;;
5040;SDS011;2539;52.568;13.364;2024-03-22T06:04:37;25.13;;;12.40;;
5040;SDS011;2539;52.568;13.364;2024-03-22T06:07:03;20.87;;;13.87;;
5040;SDS011;2539;52.568;13.364;2024-03-22T06:09:30;17.53;;;12.40;;
5040;SDS011;2539;52.568;13.364;2024-03-22T06:12:03;15.40;;;11.30;;
5040;SDS011;2539;52.568;13.364;2024-03-22T06:14:30;17.17;;;12.00;;
5040;SDS011;2539;52.568;13.364;2024-03-22T06:16:57;17.97;;;13.40;;
5040;SDS011;2539;52.568;13.364;2024-03-22T06:19:23;15.03;;;11.30;;
5040;SDS011;2539;52.568;13.364;2024-03-22T06:21:51;14.43;;;11.70;;
5040;SDS011;2539;52.568;13.364;2024-03-22T06:24:17;19.17;;;12.10;;
5040;SDS011;2539;52.568;13.364;2024-03-22T06:26:44;15.23;;;10.87;;
5040;SDS011;2539;52.568;13.364;2024-03-22T06:29:10;17.50;;;12.13;;
5040;SDS011;2539;52.568;13.364;2024-03-22T06:31:37;21.00;;;11.80;;
5040;SDS011;2539;52.568;13.364;2024-03-22T06:34:03;17.03;;;12.07;;
5040;SDS011;2539;52.568;13.364;2024-03-22T06:36:30;16.50;;;13.00;;
5040;SDS011;2539;52.568;13.364;2024-03-22T06:38:58;20.83;;;13.93;;
5040;SDS011;2539;52.568;13.364;2024-03-22T06:41:28;18.27;;;12.83;;
5040;SDS011;2539;52.568;13.364;2024-03-22T06:43:55;20.07;;;13.47;;
5040;SDS011;2539;52.568;13.364;2024-03-22T06:46:21;21.87;;;12.57;;
5040;SDS011;2539;52.568;13.364;2024-03-22T06:48:48;19.50;;;13.37;;
5040;SDS011;2539;52.568;13.364;2024-03-22T06:51:15;17.93;;;12.47;;
5040;SDS011;2539;52.568;13.364;2024-03-22T06:53:41;17.10;;;12.33;;
5040;SDS011;2539;52.568;13.364;2024-03-22T06:56:07;15.70;;;12.50;;
5040;SDS011;2539;52.568;13.364;2024-03-22T06:58:40;17.40;;;13.00;;
5040;SDS011;2539;52.568;13.364;2024-03-22T07:01:06;19.20;;;13.37;;
5040;SDS011;2539;52.568;13.364;2024-03-22T07:03:33;16.53;;;12.53;;
5040;SDS011;2539;52.568;13.364;2024-03-22T07:05:59;17.37;;;13.13;;
5040;SDS011;2539;52.568;13.364;2024-03-22T07:08:26;16.47;;;13.80;;
5040;SDS011;2539;52.568;13.364;2024-03-22T07:10:53;19.73;;;13.90;;
5040;SDS011;2539;52.568;13.364;2024-03-22T07:13:20;22.80;;;13.60;;
5040;SDS011;2539;52.568;13.364;2024-03-22T07:15:46;20.07;;;14.10;;
5040;SDS011;2539;52.568;13.364;2024-03-22T07:18:13;18.23;;;14.03;;
5040;SDS011;2539;52.568;13.364;2024-03-22T07:20:40;17.20;;;13.60;;
5040;SDS011;2539;52.568;13.364;2024-03-22T07:23:07;20.60;;;14.17;;
5040;SDS011;2539;52.568;13.364;2024-03-22T07:25:34;18.73;;;13.33;;
5040;SDS011;2539;52.568;13.364;2024-03-22T07:28:00;21.70;;;15.37;;
5040;SDS011;2539;52.568;13.364;2024-03-22T07:30:26;20.13;;;14.17;;
5040;SDS011;2539;52.568;13.364;2024-03-22T07:32:53;20.30;;;14.70;;
5040;SDS011;2539;52.568;13.364;2024-03-22T07:35:19;22.83;;;15.67;;
5040;SDS011;2539;52.568;13.364;2024-03-22T07:37:45;23.13;;;15.20;;
5040;SDS011;2539;52.568;13.364;2024-03-22T07:40:11;21.50;;;15.93;;
5040;SDS011;2539;52.568;13.364;2024-03-22T07:42:38;21.00;;;15.63;;
5040;SDS011;2539;52.568;13.364;2024-03-22T07:45:04;19.60;;;15.00;;
5040;SDS011;2539;52.568;13.364;2024-03-22T07:47:30;23.73;;;15.30;;
5040;SDS011;2539;52.568;13.364;2024-03-22T07:49:57;18.43;;;14.80;;
5040;SDS011;2539;52.568;13.364;2024-03-22T07:52:24;21.77;;;15.43;;
5040;SDS011;2539;52.568;13.364;2024-03-22T07:54:50;20.80;;;15.53;;
5040;SDS011;2539;52.568;13.364;2024-03-22T07:57:16;25.80;;;15.90;;
5040;SDS011;2539;52.568;13.364;2024-03-22T07:59:42;20.87;;;14.63;;
5040;SDS011;2539;52.568;13.364;2024-03-22T08:02:09;19.40;;;15.20;;
5040;SDS011;2539;52.568;13.364;2024-03-22T08:04:36;20.30;;;15.20;;
5040;SDS011;2539;52.568;13.364;2024-03-22T08:07:02;19.97;;;14.73;;
5040;SDS011;2539;52.568;13.364;2024-03-22T08:09:29;17.87;;;14.67;;
5040;SDS011;2539;52.568;13.364;2024-03-22T08:11:55;26.10;;;16.03;;
5040;SDS011;2539;52.568;13.364;2024-03-22T08:14:22;24.50;;;15.50;;
5040;SDS011;2539;52.568;13.364;2024-03-22T08:16:48;19.80;;;14.50;;
5040;SDS011;2539;52.568;13.364;2024-03-22T08:19:14;21.07;;;15.50;;
5040;SDS011;2539;52.568;13.364;2024-03-22T08:21:41;19.90;;;14.80;;
5040;SDS011;2539;52.568;13.364;2024-03-22T08:24:07;32.03;;;18.03;;
5040;SDS011;2539;52.568;13.364;2024-03-22T08:26:33;20.30;;;14.20;;
5040;SDS011;2539;52.568;13.364;2024-03-22T08:28:59;24.43;;;15.73;;
5040;SDS011;2539;52.568;13.364;2024-03-22T08:31:26;20.53;;;15.90;;
5040;SDS011;2539;52.568;13.364;2024-03-22T08:33:54;22.53;;;15.47;;
5040;SDS011;2539;52.568;13.364;2024-03-22T08:36:22;23.13;;;15.87;;
5040;SDS011;2539;52.568;13.364;2024-03-22T08:38:49;19.67;;;14.73;;
5040;SDS011;2539;52.568;13.364;2024-03-22T08:41:16;18.73;;;15.83;;
5040;SDS011;2539;52.568;13.364;2024-03-22T08:43:42;23.67;;;16.50;;
5040;SDS011;2539;52.568;13.364;2024-03-22T08:46:08;26.30;;;16.60;;
5040;SDS011;2539;52.568;13.364;2024-03-22T08:48:34;21.40;;;16.03;;
5040;SDS011;2539;52.568;13.364;2024-03-22T08:51:01;23.10;;;15.83;;
5040;SDS011;2539;52.568;13.364;2024-03-22T08:53:27;23.70;;;16.43;;
5040;SDS011;2539;52.568;13.364;2024-03-22T08:55:53;20.67;;;15.07;;
5040;SDS011;2539;52.568;13.364;2024-03-22T08:58:20;22.50;;;16.07;;
5040;SDS011;2539;52.568;13.364;2024-03-22T09:00:46;21.30;;;16.23;;
5040;SDS011;2539;52.568;13.364;2024-03-22T09:03:12;21.13;;;15.07;;
5040;SDS011;2539;52.568;13.364;2024-03-22T09:05:40;24.30;;;15.97;;
5040;SDS011;2539;52.568;13.364;2024-03-22T09:08:07;22.60;;;16.73;;
5040;SDS011;2539;52.568;13.364;2024-03-22T09:10:34;21.60;;;16.10;;
5040;SDS011;2539;52.568;13.364;2024-03-22T09:13:00;23.80;;;16.90;;
5040;SDS011;2539;52.568;13.364;2024-03-22T09:15:27;21.37;;;15.63;;
5040;SDS011;2539;52.568;13.364;2024-03-22T09:17:53;19.43;;;15.90;;
5040;SDS011;2539;52.568;13.364;2024-03-22T09:20:19;22.67;;;16.03;;
5040;SDS011;2539;52.568;13.364;2024-03-22T09:22:46;19.47;;;15.77;;
5040;SDS011;2539;52.568;13.364;2024-03-22T09:25:12;21.63;;;15.77;;
5040;SDS011;2539;52.568;13.364;2024-03-22T09:27:38;27.60;;;16.83;;
5040;SDS011;2539;52.568;13.364;2024-03-22T09:30:05;21.30;;;16.47;;
5040;SDS011;2539;52.568;13.364;2024-03-22T09:32:32;27.40;;;17.20;;
5040;SDS011;2539;52.568;13.364;2024-03-22T09:34:58;21.70;;;15.80;;
5040;SDS011;2539;52.568;13.364;2024-03-22T09:37:25;21.87;;;15.70;;
5040;SDS011;2539;52.568;13.364;2024-03-22T09:39:51;20.87;;;15.40;;
5040;SDS011;2539;52.568;13.364;2024-03-22T09:42:17;20.93;;;16.50;;
5040;SDS011;2539;52.568;13.364;2024-03-22T09:44:46;22.60;;;15.93;;
5040;SDS011;2539;52.568;13.364;2024-03-22T09:47:19;21.70;;;16.33;;
5040;SDS011;2539;52.568;13.364;2024-03-22T09:49:47;22.13;;;16.37;;
5040;SDS011;2539;52.568;13.364;2024-03-22T09:52:15;24.40;;;16.03;;
5040;SDS011;2539;52.568;13.364;2024-03-22T09:54:44;28.03;;;16.77;;
5040;SDS011;2539;52.568;13.364;2024-03-22T09:57:13;22.10;;;16.43;;
5040;SDS011;2539;52.568;13.364;2024-03-22T09:59:42;20.00;;;14.90;;
5040;SDS011;2539;52.568;13.364;2024-03-22T10:02:12;21.50;;;17.03;;
5040;SDS011;2539;52.568;13.364;2024-03-22T10:04:40;19.63;;;15.30;;
5040;SDS011;2539;52.568;13.364;2024-03-22T10:07:07;20.93;;;15.77;;
5040;SDS011;2539;52.568;13.364;2024-03-22T10:09:36;21.87;;;15.57;;
5040;SDS011;2539;52.568;13.364;2024-03-22T10:12:03;20.00;;;15.43;;
5040;SDS011;2539;52.568;13.364;2024-03-22T10:14:30;19.13;;;15.10;;
5040;SDS011;2539;52.568;13.364;2024-03-22T10:16:58;23.00;;;16.13;;
5040;SDS011;2539;52.568;13.364;2024-03-22T10:19:24;21.10;;;15.77;;
5040;SDS011;2539;52.568;13.364;2024-03-22T10:22:00;22.93;;;14.90;;
5040;SDS011;2539;52.568;13.364;2024-03-22T10:24:31;18.90;;;14.10;;
5040;SDS011;2539;52.568;13.364;2024-03-22T10:27:00;20.17;;;14.93;;
5040;SDS011;2539;52.568;13.364;2024-03-22T10:29:26;23.70;;;15.77;;
5040;SDS011;2539;52.568;13.364;2024-03-22T10:31:54;22.30;;;14.60;;
5040;SDS011;2539;52.568;13.364;2024-03-22T10:34:21;19.17;;;15.20;;
5040;SDS011;2539;52.568;13.364;2024-03-22T10:36:48;16.90;;;14.33;;
5040;SDS011;2539;52.568;13.364;2024-03-22T10:39:18;20.30;;;14.57;;
5040;SDS011;2539;52.568;13.364;2024-03-22T10:41:45;18.97;;;14.80;;
5040;SDS011;2539;52.568;13.364;2024-03-22T10:44:12;16.53;;;13.63;;
5040;SDS011;2539;52.568;13.364;2024-03-22T10:46:39;22.10;;;14.40;;
5040;SDS011;2539;52.568;13.364;2024-03-22T10:49:13;17.03;;;13.13;;
5040;SDS011;2539;52.568;13.364;2024-03-22T10:51:49;18.20;;;12.90;;
5040;SDS011;2539;52.568;13.364;2024-03-22T10:54:39;15.63;;;12.90;;
5040;SDS011;2539;52.568;13.364;2024-03-22T10:57:11;16.30;;;13.03;;
5040;SDS011;2539;52.568;13.364;2024-03-22T10:59:40;16.30;;;13.03;;
5040;SDS011;2539;52.568;13.364;2024-03-22T11:02:10;15.00;;;12.87;;
5040;SDS011;2539;52.568;13.364;2024-03-22T11:04:37;19.37;;;13.87;;
5040;SDS011;2539;52.568;13.364;2024-03-22T11:07:03;18.17;;;13.57;;
5040;SDS011;2539;52.568;13.364;2024-03-22T11:09:30;15.85;;;13.45;;
5040;SDS011;2539;52.568;13.364;2024-03-22T11:11:56;17.63;;;13.40;;
5040;SDS011;2539;52.568;13.364;2024-03-22T11:14:24;17.17;;;13.63;;
5040;SDS011;2539;52.568;13.364;2024-03-22T11:16:51;19.40;;;13.90;;
5040;SDS011;2539;52.568;13.364;2024-03-22T11:19:21;20.97;;;13.83;;
5040;SDS011;2539;52.568;13.364;2024-03-22T11:21:47;17.20;;;13.00;;
5040;SDS011;2539;52.568;13.364;2024-03-22T11:24:13;18.83;;;14.27;;
5040;SDS011;2539;52.568;13.364;2024-03-22T11:26:41;19.73;;;13.37;;
5040;SDS011;2539;52.568;13.364;2024-03-22T11:29:10;17.03;;;13.30;;
5040;SDS011;2539;52.568;13.364;2024-03-22T11:31:36;18.90;;;13.53;;
5040;SDS011;2539;52.568;13.364;2024-03-22T11:34:02;21.50;;;13.97;;
5040;SDS011;2539;52.568;13.364;2024-03-22T11:36:29;17.20;;;12.77;;
5040;SDS011;2539;52.568;13.364;2024-03-22T11:38:55;19.50;;;14.40;;
5040;SDS011;2539;52.568;13.364;2024-03-22T11:41:26;19.43;;;13.00;;
5040;SDS011;2539;52.568;13.364;2024-03-22T11:43:54;19.07;;;13.83;;
5040;SDS011;2539;52.568;13.364;2024-03-22T11:46:23;18.63;;;13.77;;
5040;SDS011;2539;52.568;13.364;2024-03-22T11:48:53;18.93;;;14.33;;
5040;SDS011;2539;52.568;13.364;2024-03-22T11:51:20;20.20;;;14.70;;
5040;SDS011;2539;52.568;13.364;2024-03-22T11:53:53;19.67;;;14.17;;
5040;SDS011;2539;52.568;13.364;2024-03-22T11:56:22;19.37;;;14.13;;
5040;SDS011;2539;52.568;13.364;2024-03-22T11:58:48;18.20;;;13.73;;
5040;SDS011;2539;52.568;13.364;2024-03-22T12:01:15;17.85;;;13.90;;
5040;SDS011;2539;52.568;13.364;2024-03-22T12:03:44;19.63;;;15.20;;
5040;SDS011;2539;52.568;13.364;2024-03-22T12:06:11;21.80;;;15.27;;
5040;SDS011;2539;52.568;13.364;2024-03-22T12:08:38;21.67;;;15.10;;
5040;SDS011;2539;52.568;13.364;2024-03-22T12:11:09;27.20;;;15.10;;
5040;SDS011;2539;52.568;13.364;2024-03-22T12:13:37;18.63;;;14.20;;
5040;SDS011;2539;52.568;13.364;2024-03-22T12:16:03;24.23;;;15.30;;
5040;SDS011;2539;52.568;13.364;2024-03-22T12:18:30;21.07;;;15.90;;
5040;SDS011;2539;52.568;13.364;2024-03-22T12:20:57;25.40;;;15.70;;
5040;SDS011;2539;52.568;13.364;2024-03-22T12:23:23;26.70;;;17.00;;
5040;SDS011;2539;52.568;13.364;2024-03-22T12:25:50;25.83;;;15.77;;
5040;SDS011;2539;52.568;13.364;2024-03-22T12:28:17;24.47;;;17.80;;
5040;SDS011;2539;52.568;13.364;2024-03-22T12:30:44;26.17;;;16.80;;
5040;SDS011;2539;52.568;13.364;2024-03-22T12:33:11;25.67;;;16.73;;
5040;SDS011;2539;52.568;13.364;2024-03-22T12:35:39;24.93;;;17.57;;
5040;SDS011;2539;52.568;13.364;2024-03-22T12:38:06;26.63;;;18.50;;
5040;SDS011;2539;52.568;13.364;2024-03-22T12:40:34;26.27;;;17.97;;
5040;SDS011;2539;52.568;13.364;2024-03-22T12:43:00;28.00;;;16.73;;
5040;SDS011;2539;52.568;13.364;2024-03-22T12:45:27;28.53;;;18.13;;
5040;SDS011;2539;52.568;13.364;2024-03-22T12:47:53;27.77;;;17.60;;
5040;SDS011;2539;52.568;13.364;2024-03-22T12:50:19;25.60;;;17.43;;
5040;SDS011;2539;52.568;13.364;2024-03-22T12:52:46;26.67;;;16.83;;
5040;SDS011;2539;52.568;13.364;2024-03-22T12:55:13;28.23;;;18.07;;
5040;SDS011;2539;52.568;13.364;2024-03-22T12:57:39;21.93;;;15.53;;
5040;SDS011;2539;52.568;13.364;2024-03-22T13:00:06;25.70;;;17.77;;
5040;SDS011;2539;52.568;13.364;2024-03-22T13:02:41;27.43;;;18.23;;
5040;SDS011;2539;52.568;13.364;2024-03-22T13:05:08;29.23;;;17.50;;
5040;SDS011;2539;52.568;13.364;2024-03-22T13:07:34;28.47;;;17.67;;
5040;SDS011;2539;52.568;13.364;2024-03-22T13:10:00;25.87;;;18.07;;
5040;SDS011;2539;52.568;13.364;2024-03-22T13:12:28;25.20;;;17.10;;
5040;SDS011;2539;52.568;13.364;2024-03-22T13:14:57;27.93;;;18.17;;
5040;SDS011;2539;52.568;13.364;2024-03-22T13:17:23;26.53;;;18.20;;
5040;SDS011;2539;52.568;13.364;2024-03-22T13:19:49;29.30;;;19.70;;
5040;SDS011;2539;52.568;13.364;2024-03-22T13:22:16;24.60;;;16.47;;
5040;SDS011;2539;52.568;13.364;2024-03-22T13:24:44;25.10;;;17.40;;
5040;SDS011;2539;52.568;13.364;2024-03-22T13:27:11;26.10;;;17.73;;
5040;SDS011;2539;52.568;13.364;2024-03-22T13:29:38;22.33;;;16.17;;
5040;SDS011;2539;52.568;13.364;2024-03-22T13:32:08;26.97;;;16.17;;
5040;SDS011;2539;52.568;13.364;2024-03-22T13:34:37;28.20;;;18.00;;
5040;SDS011;2539;52.568;13.364;2024-03-22T13:37:04;27.13;;;16.57;;
5040;SDS011;2539;52.568;13.364;2024-03-22T13:39:32;28.07;;;15.90;;
5040;SDS011;2539;52.568;13.364;2024-03-22T13:41:58;21.10;;;14.40;;
5040;SDS011;2539;52.568;13.364;2024-03-22T13:44:24;19.57;;;14.50;;
5040;SDS011;2539;52.568;13.364;2024-03-22T13:46:51;22.00;;;14.40;;
5040;SDS011;2539;52.568;13.364;2024-03-22T13:49:18;20.53;;;14.10;;
5040;SDS011;2539;52.568;13.364;2024-03-22T13:51:46;19.70;;;14.20;;
5040;SDS011;2539;52.568;13.364;2024-03-22T13:54:14;18.07;;;12.43;;
5040;SDS011;2539;52.568;13.364;2024-03-22T13:56:40;21.70;;;13.87;;
5040;SDS011;2539;52.568;13.364;2024-03-22T13:59:07;18.50;;;12.80;;
5040;SDS011;2539;52.568;13.364;2024-03-22T14:01:36;19.30;;;12.83;;
5040;SDS011;2539;52.568;13.364;2024-03-22T14:04:03;18.90;;;12.37;;
5040;SDS011;2539;52.568;13.364;2024-03-22T14:06:30;17.83;;;13.30;;
5040;SDS011;2539;52.568;13.364;2024-03-22T14:08:58;20.80;;;13.30;;
5040;SDS011;2539;52.568;13.364;2024-03-22T14:11:29;13.87;;;10.40;;
5040;SDS011;2539;52.568;13.364;2024-03-22T14:13:56;14.43;;;10.87;;
5040;SDS011;2539;52.568;13.364;2024-03-22T14:16:23;14.20;;;10.50;;
5040;SDS011;2539;52.568;13.364;2024-03-22T14:18:50;14.00;;;10.50;;
5040;SDS011;2539;52.568;13.364;2024-03-22T14:21:17;16.83;;;11.30;;
5040;SDS011;2539;52.568;13.364;2024-03-22T14:23:47;14.20;;;10.63;;
5040;SDS011;2539;52.568;13.364;2024-03-22T14:26:18;16.70;;;11.07;;
5040;SDS011;2539;52.568;13.364;2024-03-22T14:28:44;14.03;;;10.20;;
5040;SDS011;2539;52.568;13.364;2024-03-22T14:31:13;18.43;;;11.33;;